LEIB/IBZ METAR and TAF weather

Enter ICAO airport designator
Station Type Date Time Source
LEIB METAR 2019/05/26 01:30 UTC NOAA

LEIB 260130Z VRB01KT CAVOK 16/13 Q1016 NOSIG


Station Type Date Time Source
LEIB Decoded METAR 2019/05/26 01:30 UTC NOAA

Ibiza / Es Codola, Spain (LEIB) 38-52N 001-23E 12M
May 25, 2019 - 09:30 PM EDT / 2019.05.26 0130 UTC
Wind: Variable at 1 MPH (1 KT):0
Visibility: greater than 7 mile(s):0
Temperature: 60 F (16 C)
Dew Point: 55 F (13 C)
Relative Humidity: 82%
Pressure (altimeter): 30.00 in. Hg (1016 hPa)
ob: LEIB 260130Z VRB01KT CAVOK 16/13 Q1016 NOSIG
cycle: 1

Station Type Date Time Source
LEIB TAF 2019/05/25 21:27 UTC NOAA

TAF LEIB 252000Z 2521/2621 35008KT 9999 FEW025 TX22/2612Z TN14/2606Z
TEMPO 2601/2608 33015KT
BECMG 2608/2610 02010KT
BECMG 2613/2615 18007KT
BECMG 2617/2619 26007KT

Example: see airport list